Time;durP1;ratioP1;P1;durP2;ratioP2;P2;SDS_P1;SDS_P2;PMS_P1;PMS_P2;Temp;Humidity;BMP_temperature;BMP_pressure;BME280_temperature;BME280_humidity;BME280_pressure;Samples;Min_cycle;Max_cycle;Signal;HPM_P1;HPM_P2
2021/06/28 00:01:41;;;;;;;8.18;3.78;;;;;;;;;;5021549;28;20037;-59
2021/06/28 00:04:07;;;;;;;8.07;4.13;;;;;;;;;;5027591;28;20033;-58
2021/06/28 00:06:34;;;;;;;7.65;3.70;;;;;;;;;;5024461;28;20106;-58
2021/06/28 00:09:00;;;;;;;7.53;3.80;;;;;;;;;;5021910;28;20040;-59
2021/06/28 00:11:27;;;;;;;7.97;3.75;;;;;;;;;;5042318;28;20045;-59
2021/06/28 00:13:54;;;;;;;7.93;4.07;;;;;;;;;;5037405;28;20053;-58
2021/06/28 00:16:24;;;;;;;6.05;3.67;;;;;;;;;;5041962;28;20048;-58
2021/06/28 00:18:50;;;;;;;9.35;3.67;;;;;;;;;;5041755;28;20037;-59
2021/06/28 00:21:16;;;;;;;6.82;3.88;;;;;;;;;;5037905;28;20033;-58
2021/06/28 00:23:43;;;;;;;7.85;4.20;;;;;;;;;;5040620;28;20049;-59
2021/06/28 00:26:10;;;;;;;7.32;4.20;;;;;;;;;;5036465;28;20037;-59
2021/06/28 00:28:36;;;;;;;8.38;3.72;;;;;;;;;;5049715;28;20056;-59
2021/06/28 00:31:03;;;;;;;7.07;4.13;;;;;;;;;;5056707;28;20037;-58
2021/06/28 00:33:32;;;;;;;7.97;4.22;;;;;;;;;;5060785;28;20096;-58
2021/06/28 00:35:59;;;;;;;7.68;4.32;;;;;;;;;;5055909;28;20032;-58
2021/06/28 00:38:25;;;;;;;9.35;4.15;;;;;;;;;;5062200;28;20122;-58
2021/06/28 00:40:52;;;;;;;13.02;4.32;;;;;;;;;;5057397;28;20101;-58
2021/06/28 00:43:20;;;;;;;6.95;4.30;;;;;;;;;;5063480;28;20066;-58
2021/06/28 00:45:46;;;;;;;9.60;4.47;;;;;;;;;;5058232;28;20037;-59
2021/06/28 00:48:15;;;;;;;7.35;3.88;;;;;;;;;;5062992;28;20037;-58
2021/06/28 00:50:44;;;;;;;7.07;4.15;;;;;;;;;;5058644;28;20047;-58
2021/06/28 00:53:12;;;;;;;8.73;4.38;;;;;;;;;;5078225;28;20041;-58
2021/06/28 00:55:40;;;;;;;7.60;4.38;;;;;;;;;;5059451;28;20106;-58
2021/06/28 00:58:09;;;;;;;8.50;4.30;;;;;;;;;;5062453;28;20032;-58
2021/06/28 01:00:36;;;;;;;9.50;4.85;;;;;;;;;;5058547;28;20059;-58
2021/06/28 01:03:03;;;;;;;9.05;4.28;;;;;;;;;;5060267;28;20053;-58
2021/06/28 01:05:32;;;;;;;9.38;4.97;;;;;;;;;;5041141;28;20099;-59
2021/06/28 01:07:58;;;;;;;;;;;;;;;;;;5038420;28;20057;-58
2021/06/28 01:10:26;;;;;;;7.90;4.30;;;;;;;;;;5051672;28;19928;-59
2021/06/28 01:12:53;;;;;;;10.50;4.90;;;;;;;;;;5043142;28;20041;-59
2021/06/28 01:15:20;;;;;;;7.90;4.22;;;;;;;;;;5042792;28;20037;-58
2021/06/28 01:17:47;;;;;;;9.27;4.57;;;;;;;;;;5039422;28;20045;-58
2021/06/28 01:20:16;;;;;;;7.43;4.43;;;;;;;;;;5043534;28;20036;-59
2021/06/28 01:22:45;;;;;;;8.55;4.57;;;;;;;;;;5034589;28;20037;-58
2021/06/28 01:25:14;;;;;;;8.70;4.78;;;;;;;;;;5037089;28;20025;-58
2021/06/28 01:27:41;;;;;;;9.75;4.95;;;;;;;;;;5039452;28;20033;-58
2021/06/28 01:30:08;;;;;;;8.85;4.80;;;;;;;;;;5043195;28;20041;-58
2021/06/28 01:32:36;;;;;;;9.30;5.20;;;;;;;;;;5038530;28;20038;-59
2021/06/28 01:35:02;;;;;;;11.70;4.78;;;;;;;;;;5040126;28;20052;-58
2021/06/28 01:37:30;;;;;;;8.82;5.15;;;;;;;;;;5038170;28;20048;-58
2021/06/28 01:39:58;;;;;;;9.52;5.22;;;;;;;;;;5042078;28;20109;-58
2021/06/28 01:42:27;;;;;;;8.57;4.60;;;;;;;;;;5040301;28;20089;-58
2021/06/28 01:44:54;;;;;;;9.88;5.10;;;;;;;;;;5042878;28;20128;-59
2021/06/28 01:47:21;;;;;;;10.52;4.70;;;;;;;;;;5041584;28;20045;-58
2021/06/28 01:49:48;;;;;;;8.98;4.53;;;;;;;;;;5038577;28;20045;-58
2021/06/28 01:52:16;;;;;;;9.75;4.95;;;;;;;;;;5043803;28;20049;-58
2021/06/28 01:54:43;;;;;;;9.50;5.22;;;;;;;;;;5042455;28;20065;-58
2021/06/28 01:57:09;;;;;;;7.68;4.72;;;;;;;;;;5046393;28;20029;-58
2021/06/28 01:59:39;;;;;;;8.10;4.85;;;;;;;;;;5038143;28;20049;-58
2021/06/28 02:02:08;;;;;;;9.13;5.05;;;;;;;;;;5042029;28;20117;-58
2021/06/28 02:04:35;;;;;;;8.35;4.60;;;;;;;;;;5025846;28;20041;-58
2021/06/28 02:07:01;;;;;;;8.27;4.65;;;;;;;;;;5023259;28;20041;-58
2021/06/28 02:09:31;;;;;;;8.98;4.93;;;;;;;;;;5019615;28;20042;-58
2021/06/28 02:11:57;;;;;;;9.15;4.68;;;;;;;;;;5020840;28;20038;-57
2021/06/28 02:14:23;;;;;;;10.30;4.78;;;;;;;;;;5018113;28;20054;-58
2021/06/28 02:16:52;;;;;;;11.77;4.88;;;;;;;;;;5021949;28;20042;-59
2021/06/28 02:19:19;;;;;;;9.07;4.53;;;;;;;;;;5020077;28;20121;-58
2021/06/28 02:21:47;;;;;;;8.73;4.80;;;;;;;;;;5021686;28;20056;-58
2021/06/28 02:24:14;;;;;;;10.30;4.95;;;;;;;;;;5016832;28;20058;-58
2021/06/28 02:26:41;;;;;;;12.98;5.07;;;;;;;;;;5022492;28;20034;-58
2021/06/28 02:29:07;;;;;;;11.13;4.78;;;;;;;;;;5020443;28;20052;-58
2021/06/28 02:31:34;;;;;;;10.88;5.15;;;;;;;;;;5002118;28;20062;-59
2021/06/28 02:34:03;;;;;;;15.35;5.15;;;;;;;;;;5002525;28;20057;-58
2021/06/28 02:36:29;;;;;;;9.77;4.85;;;;;;;;;;5016182;28;20049;-59
2021/06/28 02:38:57;;;;;;;9.68;5.05;;;;;;;;;;5021902;28;20056;-58
2021/06/28 02:41:26;;;;;;;11.30;5.55;;;;;;;;;;5019456;28;20056;-58
2021/06/28 02:43:53;;;;;;;8.88;4.82;;;;;;;;;;5023269;28;20052;-58
2021/06/28 02:46:20;;;;;;;9.38;4.80;;;;;;;;;;5020240;28;20061;-59
2021/06/28 02:48:46;;;;;;;9.30;4.90;;;;;;;;;;5020595;28;20038;-58
2021/06/28 02:51:15;;;;;;;12.02;5.32;;;;;;;;;;5018382;28;20135;-58
2021/06/28 02:53:42;;;;;;;9.02;4.93;;;;;;;;;;5022612;28;20038;-58
2021/06/28 02:56:15;;;;;;;8.52;5.28;;;;;;;;;;5017459;28;20077;-58
2021/06/28 02:58:43;;;;;;;9.85;5.22;;;;;;;;;;5020854;28;20045;-59
2021/06/28 03:01:09;;;;;;;9.97;5.43;;;;;;;;;;5018229;28;20049;-58
2021/06/28 03:03:36;;;;;;;9.05;5.18;;;;;;;;;;5020033;28;20113;-58
2021/06/28 03:06:06;;;;;;;8.48;4.85;;;;;;;;;;5013383;28;20045;-58
2021/06/28 03:08:34;;;;;;;12.63;5.43;;;;;;;;;;5018317;28;20053;-58
2021/06/28 03:11:02;;;;;;;8.48;4.97;;;;;;;;;;5035070;28;20187;-58
2021/06/28 03:13:31;;;;;;;8.98;5.10;;;;;;;;;;5021867;28;20033;-58
2021/06/28 03:15:58;;;;;;;12.38;5.82;;;;;;;;;;5017972;28;20049;-58
2021/06/28 03:18:24;;;;;;;10.70;5.35;;;;;;;;;;4995885;28;20037;-58
2021/06/28 03:20:56;;;;;;;10.70;4.63;;;;;;;;;;5022055;28;20072;-59
2021/06/28 03:23:24;;;;;;;11.30;5.15;;;;;;;;;;5016912;28;20160;-58
2021/06/28 03:25:52;;;;;;;9.23;6.00;;;;;;;;;;5022607;28;20046;-59
2021/06/28 03:28:18;;;;;;;8.70;5.10;;;;;;;;;;5018116;28;20091;-55
2021/06/28 03:30:46;;;;;;;10.18;5.53;;;;;;;;;;5025150;28;20026;-58
2021/06/28 03:33:13;;;;;;;9.15;5.18;;;;;;;;;;5022236;28;20042;-58
2021/06/28 03:35:40;;;;;;;8.95;5.22;;;;;;;;;;5021947;28;20095;-57
2021/06/28 03:38:07;;;;;;;9.88;5.80;;;;;;;;;;5018562;28;20052;-58
2021/06/28 03:40:33;;;;;;;10.68;5.45;;;;;;;;;;5021223;28;20042;-56
2021/06/28 03:43:03;;;;;;;10.43;5.32;;;;;;;;;;5017530;28;20049;-58
2021/06/28 03:45:31;;;;;;;10.10;5.40;;;;;;;;;;5020230;28;20080;-58
2021/06/28 03:48:00;;;;;;;10.93;6.00;;;;;;;;;;5011829;28;20042;-58
2021/06/28 03:50:26;;;;;;;8.75;4.95;;;;;;;;;;5001741;28;20042;-58
2021/06/28 03:52:53;;;;;;;10.25;5.50;;;;;;;;;;5016275;28;20034;-58
2021/06/28 03:55:19;;;;;;;9.95;5.38;;;;;;;;;;5019234;28;20041;-58
2021/06/28 03:57:46;;;;;;;13.20;5.63;;;;;;;;;;5016151;28;20046;-58
2021/06/28 04:00:16;;;;;;;12.35;5.55;;;;;;;;;;5020007;28;20042;-58
2021/06/28 04:02:45;;;;;;;10.48;5.20;;;;;;;;;;5017271;28;20041;-58
2021/06/28 04:05:13;;;;;;;8.23;4.78;;;;;;;;;;5042564;28;20033;-57
2021/06/28 04:07:40;;;;;;;11.57;5.88;;;;;;;;;;5044721;28;20049;-57
2021/06/28 04:10:07;;;;;;;9.68;5.38;;;;;;;;;;5046776;28;20163;-58
2021/06/28 04:12:35;;;;;;;8.10;4.50;;;;;;;;;;5041770;28;20046;-58
2021/06/28 04:15:02;;;;;;;9.25;5.25;;;;;;;;;;5059022;28;20045;-56
2021/06/28 04:17:30;;;;;;;9.07;5.05;;;;;;;;;;5043648;28;20052;-58
2021/06/28 04:19:56;;;;;;;8.75;5.15;;;;;;;;;;5066707;28;20045;-57
2021/06/28 04:22:23;;;;;;;9.32;5.45;;;;;;;;;;5060657;28;20182;-58
2021/06/28 04:24:49;;;;;;;12.25;5.57;;;;;;;;;;5048245;28;20048;-58
2021/06/28 04:27:17;;;;;;;10.07;5.25;;;;;;;;;;5059960;28;20060;-57
2021/06/28 04:29:43;;;;;;;10.40;5.30;;;;;;;;;;5057010;28;20041;-58
2021/06/28 04:32:10;;;;;;;12.60;5.38;;;;;;;;;;5062042;28;20288;-58
2021/06/28 04:34:43;;;;;;;9.35;4.85;;;;;;;;;;5057562;28;20048;-57
2021/06/28 04:37:10;;;;;;;8.88;5.13;;;;;;;;;;5059079;28;20052;-58
2021/06/28 04:39:36;;;;;;;9.20;4.55;;;;;;;;;;5055791;28;20115;-58
2021/06/28 04:42:03;;;;;;;9.15;4.75;;;;;;;;;;5059027;28;20114;-58
2021/06/28 04:44:30;;;;;;;11.20;5.60;;;;;;;;;;5057753;28;20041;-59
2021/06/28 04:46:56;;;;;;;9.52;5.35;;;;;;;;;;5059916;28;20044;-59
2021/06/28 04:49:23;;;;;;;9.55;5.20;;;;;;;;;;5059775;28;20037;-58
2021/06/28 04:51:51;;;;;;;10.35;5.50;;;;;;;;;;5040247;28;20069;-58
2021/06/28 04:54:17;;;;;;;9.98;5.38;;;;;;;;;;5043018;28;20114;-58
2021/06/28 04:56:44;;;;;;;9.88;5.20;;;;;;;;;;5069824;28;20049;-57
2021/06/28 04:59:10;;;;;;;11.20;5.85;;;;;;;;;;5058555;28;20041;-58
2021/06/28 05:01:36;;;;;;;14.15;7.95;;;;;;;;;;5052668;28;20053;-57
2021/06/28 05:04:03;;;;;;;35.25;18.48;;;;;;;;;;5059308;28;20149;-56
2021/06/28 05:06:30;;;;;;;18.75;10.65;;;;;;;;;;5044962;28;20057;-57
2021/06/28 05:08:57;;;;;;;12.82;7.45;;;;;;;;;;5063649;28;20073;-58
2021/06/28 05:11:24;;;;;;;13.30;6.72;;;;;;;;;;5042117;28;20048;-57
2021/06/28 05:13:52;;;;;;;11.20;6.32;;;;;;;;;;5040554;28;20040;-55
2021/06/28 05:16:19;;;;;;;13.75;7.85;;;;;;;;;;5056271;28;20044;-57
2021/06/28 05:18:46;;;;;;;13.60;7.88;;;;;;;;;;5041669;28;20061;-58
2021/06/28 05:21:12;;;;;;;12.70;7.45;;;;;;;;;;5038488;28;20122;-57
2021/06/28 05:23:39;;;;;;;16.23;7.28;;;;;;;;;;5058728;28;20052;-58
2021/06/28 05:26:07;;;;;;;13.98;7.93;;;;;;;;;;5042862;28;20077;-57
2021/06/28 05:28:33;;;;;;;14.73;7.80;;;;;;;;;;5042513;28;20040;-58
2021/06/28 05:31:00;;;;;;;13.27;7.78;;;;;;;;;;5044666;28;20064;-56
2021/06/28 05:33:27;;;;;;;15.57;8.60;;;;;;;;;;5040072;28;20041;-57
2021/06/28 05:35:54;;;;;;;14.27;8.77;;;;;;;;;;5045105;28;20033;-57
2021/06/28 05:38:20;;;;;;;15.48;8.05;;;;;;;;;;5039739;28;20110;-58
2021/06/28 05:40:47;;;;;;;13.30;7.63;;;;;;;;;;5043460;28;20055;-57
2021/06/28 05:43:15;;;;;;;16.33;8.30;;;;;;;;;;5040376;28;20130;-57
2021/06/28 05:45:44;;;;;;;13.90;7.95;;;;;;;;;;5046424;28;20040;-57
2021/06/28 05:48:10;;;;;;;13.35;7.38;;;;;;;;;;5040429;28;20045;-57
2021/06/28 05:50:37;;;;;;;16.45;7.80;;;;;;;;;;5042888;28;20049;-56
2021/06/28 05:53:03;;;;;;;14.50;8.15;;;;;;;;;;5058452;28;20040;-57
2021/06/28 05:55:30;;;;;;;15.30;7.20;;;;;;;;;;5062106;28;20045;-58
2021/06/28 05:57:57;;;;;;;16.65;8.88;;;;;;;;;;5040954;28;20052;-58
2021/06/28 06:00:25;;;;;;;16.95;7.28;;;;;;;;;;5062862;28;20041;-58
2021/06/28 06:02:52;;;;;;;17.70;8.07;;;;;;;;;;5057619;28;20088;-58
2021/06/28 06:05:19;;;;;;;12.80;7.25;;;;;;;;;;5022093;28;20090;-57
2021/06/28 06:07:45;;;;;;;14.70;7.80;;;;;;;;;;5023114;28;20123;-58
2021/06/28 06:10:13;;;;;;;15.05;7.22;;;;;;;;;;5022107;28;20492;-58
2021/06/28 06:12:40;;;;;;;17.07;8.10;;;;;;;;;;5022760;28;20042;-58
2021/06/28 06:15:08;;;;;;;14.52;7.00;;;;;;;;;;5018700;28;20046;-58
2021/06/28 06:17:36;;;;;;;14.90;7.68;;;;;;;;;;5023860;28;20046;-59
2021/06/28 06:20:05;;;;;;;14.40;7.85;;;;;;;;;;5018922;28;20115;-59
2021/06/28 06:22:31;;;;;;;16.02;8.20;;;;;;;;;;5023199;28;20086;-58
2021/06/28 06:24:58;;;;;;;17.60;8.35;;;;;;;;;;5021149;28;20033;-58
2021/06/28 06:27:24;;;;;;;16.05;8.48;;;;;;;;;;5019676;28;20120;-58
2021/06/28 06:29:51;;;;;;;15.05;7.72;;;;;;;;;;5020968;28;20069;-58
2021/06/28 06:32:17;;;;;;;14.05;8.15;;;;;;;;;;5021833;28;20042;-58
2021/06/28 06:34:45;;;;;;;15.18;9.50;;;;;;;;;;5019199;28;20065;-58
2021/06/28 06:37:13;;;;;;;17.13;8.60;;;;;;;;;;5015646;28;20030;-59
2021/06/28 06:39:39;;;;;;;13.88;8.32;;;;;;;;;;5018335;28;20094;-58
2021/06/28 06:42:08;;;;;;;16.13;8.10;;;;;;;;;;5013193;28;20041;-58
2021/06/28 06:44:35;;;;;;;14.13;7.45;;;;;;;;;;5019319;28;20038;-58
2021/06/28 06:47:01;;;;;;;15.32;7.95;;;;;;;;;;5025949;28;20041;-59
2021/06/28 06:49:28;;;;;;;17.23;8.55;;;;;;;;;;5022553;28;20287;-58
2021/06/28 06:51:56;;;;;;;13.82;7.93;;;;;;;;;;5019431;28;20052;-59
2021/06/28 06:54:22;;;;;;;13.98;7.63;;;;;;;;;;5021157;28;20136;-58
2021/06/28 06:56:49;;;;;;;13.80;7.40;;;;;;;;;;5018151;28;20103;-58
2021/06/28 06:59:18;;;;;;;13.38;7.70;;;;;;;;;;5022549;28;20050;-58
2021/06/28 07:01:45;;;;;;;13.82;7.85;;;;;;;;;;5019303;28;20048;-59
2021/06/28 07:04:14;;;;;;;15.00;8.13;;;;;;;;;;5037768;28;20182;-58
2021/06/28 07:06:40;;;;;;;14.73;8.32;;;;;;;;;;5055641;28;20064;-58
2021/06/28 07:09:08;;;;;;;16.08;8.48;;;;;;;;;;5059003;28;20045;-58
2021/06/28 07:11:35;;;;;;;13.18;8.32;;;;;;;;;;5052485;28;20094;-58
2021/06/28 07:14:01;;;;;;;17.02;8.73;;;;;;;;;;5063560;28;20164;-58
2021/06/28 07:16:31;;;;;;;14.63;7.82;;;;;;;;;;5060074;28;20040;-58
2021/06/28 07:18:57;;;;;;;14.23;7.88;;;;;;;;;;5063504;28;20073;-58
2021/06/28 07:21:24;;;;;;;17.27;8.95;;;;;;;;;;5058178;28;20043;-58
2021/06/28 07:23:52;;;;;;;18.80;8.45;;;;;;;;;;5057568;28;20094;-59
2021/06/28 07:26:20;;;;;;;15.20;8.02;;;;;;;;;;5035763;28;20140;-58
2021/06/28 07:28:47;;;;;;;16.95;8.10;;;;;;;;;;5040678;28;20037;-58
2021/06/28 07:31:14;;;;;;;16.55;7.70;;;;;;;;;;5042673;28;20041;-58
2021/06/28 07:33:44;;;;;;;15.48;8.60;;;;;;;;;;5023427;28;20041;-58
2021/06/28 07:36:11;;;;;;;14.07;8.00;;;;;;;;;;5025861;28;20065;-59
2021/06/28 07:38:38;;;;;;;16.88;8.13;;;;;;;;;;5041005;28;20045;-58
2021/06/28 07:41:06;;;;;;;13.77;8.25;;;;;;;;;;5041354;28;20112;-60
2021/06/28 07:43:35;;;;;;;17.35;7.72;;;;;;;;;;5028004;28;20029;-58
2021/06/28 07:46:01;;;;;;;13.95;8.00;;;;;;;;;;5026209;28;20052;-59
2021/06/28 07:48:28;;;;;;;12.73;7.13;;;;;;;;;;5030326;28;20077;-59
2021/06/28 07:50:54;;;;;;;14.05;7.57;;;;;;;;;;5041903;28;20048;-59
2021/06/28 07:53:21;;;;;;;16.83;7.85;;;;;;;;;;5036024;28;20053;-58
2021/06/28 07:55:49;;;;;;;12.77;7.50;;;;;;;;;;5040895;28;20098;-59
2021/06/28 07:58:15;;;;;;;14.30;7.60;;;;;;;;;;5035381;28;20048;-59
2021/06/28 08:00:43;;;;;;;14.48;8.13;;;;;;;;;;5041534;28;20045;-59
2021/06/28 08:03:10;;;;;;;16.92;10.10;;;;;;;;;;5034334;28;20037;-59
2021/06/28 08:05:37;;;;;;;16.83;8.23;;;;;;;;;;5022734;28;20081;-59
2021/06/28 08:08:03;;;;;;;13.73;7.53;;;;;;;;;;5021460;28;20103;-59
2021/06/28 08:10:30;;;;;;;11.77;7.53;;;;;;;;;;5028360;28;20041;-58
2021/06/28 08:12:57;;;;;;;16.02;9.13;;;;;;;;;;5034299;28;20041;-59
2021/06/28 08:15:24;;;;;;;16.30;8.60;;;;;;;;;;5061196;28;20033;-59
2021/06/28 08:17:52;;;;;;;16.55;9.40;;;;;;;;;;5061764;28;20129;-59
2021/06/28 08:20:20;;;;;;;16.55;8.00;;;;;;;;;;5041275;28;20029;-59
2021/06/28 08:22:50;;;;;;;16.65;7.70;;;;;;;;;;5062414;28;20033;-58
2021/06/28 08:25:16;;;;;;;17.27;8.55;;;;;;;;;;5054281;28;20028;-59
2021/06/28 08:27:44;;;;;;;16.65;8.70;;;;;;;;;;5061900;28;20085;-58
2021/06/28 08:30:11;;;;;;;17.02;8.55;;;;;;;;;;5055461;28;20033;-58
2021/06/28 08:32:38;;;;;;;16.00;8.63;;;;;;;;;;5060229;28;20048;-59
2021/06/28 08:35:07;;;;;;;13.43;8.15;;;;;;;;;;5048858;28;20056;-59
2021/06/28 08:37:33;;;;;;;16.00;7.20;;;;;;;;;;5077711;28;20049;-59
2021/06/28 08:40:00;;;;;;;15.30;8.35;;;;;;;;;;5062798;28;20074;-59
2021/06/28 08:42:26;;;;;;;14.73;7.60;;;;;;;;;;5058557;28;20083;-59
2021/06/28 08:44:55;;;;;;;14.70;8.18;;;;;;;;;;5053486;28;20133;-59
2021/06/28 08:47:21;;;;;;;14.73;8.27;;;;;;;;;;5043000;28;20133;-59
2021/06/28 08:49:49;;;;;;;16.67;9.07;;;;;;;;;;5062920;28;20068;-59
2021/06/28 08:52:18;;;;;;;15.02;9.27;;;;;;;;;;5060732;28;20056;-59
2021/06/28 08:54:45;;;;;;;16.90;9.70;;;;;;;;;;5035604;28;20085;-59
2021/06/28 08:57:12;;;;;;;14.55;7.80;;;;;;;;;;5043189;28;20113;-59
2021/06/28 08:59:41;;;;;;;11.38;6.53;;;;;;;;;;5043157;28;20049;-59
2021/06/28 09:02:07;;;;;;;13.20;6.30;;;;;;;;;;5073817;28;20040;-60
2021/06/28 09:04:37;;;;;;;13.10;6.80;;;;;;;;;;5062437;28;20051;-59
2021/06/28 09:07:20;;;;;;;14.85;8.10;;;;;;;;;;5041525;28;20029;-60
2021/06/28 09:09:46;;;;;;;12.20;6.63;;;;;;;;;;5042107;28;20136;-59
2021/06/28 09:12:14;;;;;;;14.85;8.00;;;;;;;;;;5007799;28;20033;-58
2021/06/28 09:14:46;;;;;;;14.18;7.22;;;;;;;;;;5044401;28;20045;-59
2021/06/28 09:17:24;;;;;;;19.77;8.05;;;;;;;;;;5055355;28;20136;-59
2021/06/28 09:20:05;;;;;;;15.80;6.90;;;;;;;;;;5062838;28;20073;-59
2021/06/28 09:22:33;;;;;;;13.35;6.78;;;;;;;;;;5018992;28;20122;-60
2021/06/28 09:25:00;;;;;;;;;;;;;;;;;;5050502;28;20050;-59
2021/06/28 09:27:27;;;;;;;11.07;6.57;;;;;;;;;;5048305;28;19927;-59
2021/06/28 09:29:55;;;;;;;14.98;7.70;;;;;;;;;;5063669;28;20029;-59
2021/06/28 09:32:22;;;;;;;12.02;7.20;;;;;;;;;;5058703;28;20081;-59
2021/06/28 09:34:50;;;;;;;10.77;6.57;;;;;;;;;;5061957;28;20041;-59
2021/06/28 09:37:17;;;;;;;11.83;7.07;;;;;;;;;;5064050;28;20048;-59
2021/06/28 09:39:46;;;;;;;16.23;7.20;;;;;;;;;;5061890;28;20047;-59
2021/06/28 09:42:15;;;;;;;12.70;6.68;;;;;;;;;;5061363;28;20052;-59
2021/06/28 09:44:49;;;;;;;8.80;5.00;;;;;;;;;;5060455;28;20053;-59
2021/06/28 09:47:17;;;;;;;15.18;6.00;;;;;;;;;;5059266;28;20124;-59
2021/06/28 09:50:05;;;;;;;14.23;6.60;;;;;;;;;;5062478;28;20048;-59
2021/06/28 09:52:32;;;;;;;10.55;6.25;;;;;;;;;;5058899;28;20095;-59
2021/06/28 09:55:13;;;;;;;9.80;5.38;;;;;;;;;;5062268;28;20126;-59
2021/06/28 09:57:39;;;;;;;9.00;5.10;;;;;;;;;;5060835;28;20130;-60
2021/06/28 10:00:21;;;;;;;9.50;4.82;;;;;;;;;;5063228;28;20041;-59
2021/06/28 10:02:51;;;;;;;10.73;5.40;;;;;;;;;;5058817;28;20041;-59
2021/06/28 10:05:29;;;;;;;12.05;5.32;;;;;;;;;;5063852;28;20122;-59
2021/06/28 10:07:56;;;;;;;9.05;5.13;;;;;;;;;;5061091;28;20045;-59
2021/06/28 10:10:25;;;;;;;10.88;6.00;;;;;;;;;;5051134;28;20055;-59
2021/06/28 10:13:03;;;;;;;10.77;6.30;;;;;;;;;;5059565;28;20032;-59
2021/06/28 10:15:31;;;;;;;10.35;6.15;;;;;;;;;;5062053;28;20033;-59
2021/06/28 10:17:58;;;;;;;8.85;5.80;;;;;;;;;;5042288;28;20044;-59
2021/06/28 10:20:27;;;;;;;10.52;6.07;;;;;;;;;;5062560;28;20048;-59
2021/06/28 10:22:54;;;;;;;11.50;5.70;;;;;;;;;;5060118;28;20041;-59
2021/06/28 10:25:22;;;;;;;10.45;5.38;;;;;;;;;;5048424;28;20041;-59
2021/06/28 10:27:50;;;;;;;13.57;5.70;;;;;;;;;;5042752;28;20060;-59
2021/06/28 10:30:20;;;;;;;10.32;5.65;;;;;;;;;;5034577;28;20041;-59
2021/06/28 10:32:49;;;;;;;10.27;5.68;;;;;;;;;;5041541;28;20049;-59
2021/06/28 10:35:22;;;;;;;14.15;7.28;;;;;;;;;;5026592;28;20056;-59
2021/06/28 10:37:49;;;;;;;13.00;6.88;;;;;;;;;;5025179;28;20033;-59
2021/06/28 10:40:16;;;;;;;15.45;6.88;;;;;;;;;;5020716;28;20056;-59
2021/06/28 10:42:44;;;;;;;12.18;6.20;;;;;;;;;;5025366;28;20048;-59
2021/06/28 10:45:13;;;;;;;12.23;5.65;;;;;;;;;;5039239;28;20045;-59
2021/06/28 10:47:41;;;;;;;10.52;5.88;;;;;;;;;;5024418;28;20045;-59
2021/06/28 10:50:08;;;;;;;12.80;6.72;;;;;;;;;;5021766;28;20037;-59
2021/06/28 10:52:49;;;;;;;16.63;8.73;;;;;;;;;;5023687;28;20041;-59
2021/06/28 10:55:34;;;;;;;15.60;7.63;;;;;;;;;;5021179;28;20041;-59
2021/06/28 10:58:00;;;;;;;15.23;7.05;;;;;;;;;;5025184;28;20033;-59
2021/06/28 11:00:51;;;;;;;15.13;7.32;;;;;;;;;;5022696;28;20045;-59
2021/06/28 11:03:36;;;;;;;15.40;7.03;;;;;;;;;;5041084;28;20111;-59
2021/06/28 11:06:25;;;;;;;10.43;6.45;;;;;;;;;;5029107;28;20115;-60
2021/06/28 11:08:59;;;;;;;12.88;7.18;;;;;;;;;;5042694;28;20073;-59
2021/06/28 11:11:44;;;;;;;12.98;7.28;;;;;;;;;;5027219;28;20119;-59
2021/06/28 11:14:11;;;;;;;15.95;7.95;;;;;;;;;;5020750;28;20132;-59
2021/06/28 11:16:40;;;;;;;14.32;7.57;;;;;;;;;;5038245;28;20109;-59
2021/06/28 11:19:37;;;;;;;14.45;8.30;;;;;;;;;;5023751;28;20398;-59
2021/06/28 11:22:18;;;;;;;17.00;9.27;;;;;;;;;;5036193;28;20107;-60
2021/06/28 11:24:57;;;;;;;26.83;13.02;;;;;;;;;;5022519;28;20057;-59
2021/06/28 11:27:26;;;;;;;18.15;9.38;;;;;;;;;;5018313;28;20127;-59
2021/06/28 11:29:54;;;;;;;13.52;8.25;;;;;;;;;;5022424;28;20041;-59
2021/06/28 11:32:23;;;;;;;14.30;7.75;;;;;;;;;;5020643;28;20048;-59
2021/06/28 11:34:50;;;;;;;16.33;7.70;;;;;;;;;;5024094;28;20049;-59
2021/06/28 11:37:17;;;;;;;14.57;7.97;;;;;;;;;;5020833;28;20045;-59
2021/06/28 11:39:54;;;;;;;13.57;7.07;;;;;;;;;;5023532;28;20054;-59
2021/06/28 11:42:38;;;;;;;19.95;7.88;;;;;;;;;;5021414;28;20029;-59
2021/06/28 11:45:06;;;;;;;21.45;9.45;;;;;;;;;;5025579;28;20057;-59
2021/06/28 11:47:51;;;;;;;24.63;13.75;;;;;;;;;;5020064;28;20119;-59
2021/06/28 11:50:30;;;;;;;22.40;11.43;;;;;;;;;;5022583;28;20049;-60
2021/06/28 11:53:02;;;;;;;19.23;9.13;;;;;;;;;;5018390;28;20045;-59
2021/06/28 11:55:30;;;;;;;13.88;8.27;;;;;;;;;;5023168;28;20180;-59
2021/06/28 11:57:58;;;;;;;16.43;8.37;;;;;;;;;;5018401;28;20052;-59
2021/06/28 12:00:24;;;;;;;19.23;8.18;;;;;;;;;;5023883;28;20330;-59
2021/06/28 12:03:06;;;;;;;16.38;7.85;;;;;;;;;;5018253;28;20037;-59
2021/06/28 12:05:34;;;;;;;15.15;7.85;;;;;;;;;;5011220;28;20041;-59
2021/06/28 12:08:00;;;;;;;16.35;8.65;;;;;;;;;;5019217;28;20104;-59
2021/06/28 12:10:27;;;;;;;13.15;7.53;;;;;;;;;;5024738;28;20053;-60
2021/06/28 12:12:55;;;;;;;17.40;7.45;;;;;;;;;;5020489;28;20067;-59
2021/06/28 12:15:24;;;;;;;14.00;7.60;;;;;;;;;;5022145;28;20099;-59
2021/06/28 12:17:50;;;;;;;14.20;7.60;;;;;;;;;;5037859;28;20048;-59
2021/06/28 12:20:19;;;;;;;13.55;7.25;;;;;;;;;;5022991;28;20340;-59
2021/06/28 12:22:48;;;;;;;12.90;7.07;;;;;;;;;;5016751;28;20041;-60
2021/06/28 12:25:15;;;;;;;14.13;7.60;;;;;;;;;;5038302;28;20029;-59
2021/06/28 12:27:44;;;;;;;12.60;7.38;;;;;;;;;;5041141;28;20055;-59
2021/06/28 12:30:13;;;;;;;15.05;8.63;;;;;;;;;;5038633;28;20080;-59
2021/06/28 12:32:44;;;;;;;15.95;8.07;;;;;;;;;;5041291;28;20049;-59
2021/06/28 12:35:11;;;;;;;17.35;9.70;;;;;;;;;;5041867;28;20142;-59
2021/06/28 12:37:39;;;;;;;15.55;8.80;;;;;;;;;;5044964;28;20070;-59
2021/06/28 12:40:14;;;;;;;16.38;9.23;;;;;;;;;;5059184;28;20080;-59
2021/06/28 12:42:41;;;;;;;21.42;9.80;;;;;;;;;;5045877;28;20387;-59
2021/06/28 12:45:10;;;;;;;17.23;9.65;;;;;;;;;;5041932;28;20049;-59
2021/06/28 12:47:39;;;;;;;17.95;8.77;;;;;;;;;;5046841;28;20118;-59
2021/06/28 12:50:06;;;;;;;18.52;9.23;;;;;;;;;;5043375;28;20134;-59
2021/06/28 12:52:34;;;;;;;16.90;9.48;;;;;;;;;;5044238;28;20094;-59
2021/06/28 12:55:06;;;;;;;18.60;9.77;;;;;;;;;;5040557;28;20040;-59
2021/06/28 12:57:34;;;;;;;16.98;9.93;;;;;;;;;;5044173;28;20056;-59
2021/06/28 13:00:02;;;;;;;;;;;;;;;;;;5059711;28;20052;-59
2021/06/28 13:02:29;;;;;;;17.25;9.77;;;;;;;;;;5043276;28;20063;-59
2021/06/28 13:05:02;;;;;;;14.10;8.77;;;;;;;;;;5034979;28;20048;-59
2021/06/28 13:07:28;;;;;;;15.60;9.00;;;;;;;;;;5043916;28;20139;-59
2021/06/28 13:09:59;;;;;;;17.35;9.00;;;;;;;;;;5043114;28;20060;-59
2021/06/28 13:12:29;;;;;;;19.10;9.35;;;;;;;;;;5044193;28;20045;-60
2021/06/28 13:15:21;;;;;;;13.50;8.13;;;;;;;;;;5024444;28;20042;-59
2021/06/28 13:17:54;;;;;;;14.52;7.82;;;;;;;;;;5042890;28;20049;-59
2021/06/28 13:20:21;;;;;;;14.55;6.95;;;;;;;;;;5023470;28;20092;-59
2021/06/28 13:22:57;;;;;;;15.68;6.75;;;;;;;;;;5046864;28;20134;-60
2021/06/28 13:25:26;;;;;;;15.70;7.85;;;;;;;;;;5041965;28;20063;-59
2021/06/28 13:27:53;;;;;;;12.35;7.30;;;;;;;;;;5044758;28;20033;-59
2021/06/28 13:30:22;;;;;;;12.52;6.97;;;;;;;;;;5023428;28;20041;-59
2021/06/28 13:32:50;;;;;;;11.93;7.10;;;;;;;;;;5041201;28;20049;-59
2021/06/28 13:35:26;;;;;;;11.43;6.90;;;;;;;;;;5042543;28;20112;-59
2021/06/28 13:38:05;;;;;;;13.07;7.10;;;;;;;;;;5020801;28;20041;-59
2021/06/28 13:40:32;;;;;;;14.05;7.60;;;;;;;;;;5018130;28;20049;-59
2021/06/28 13:42:59;;;;;;;12.75;7.85;;;;;;;;;;5044223;28;20036;-59
2021/06/28 13:45:28;;;;;;;13.77;7.88;;;;;;;;;;5059196;28;20049;-59
2021/06/28 13:47:56;;;;;;;11.05;7.28;;;;;;;;;;5037856;28;20092;-59
2021/06/28 13:50:23;;;;;;;14.00;8.57;;;;;;;;;;5024996;28;20111;-59
2021/06/28 13:52:50;;;;;;;14.80;9.17;;;;;;;;;;5039945;28;20069;-59
2021/06/28 13:55:17;;;;;;;16.30;9.68;;;;;;;;;;5035595;28;20078;-58
2021/06/28 13:57:47;;;;;;;17.45;8.93;;;;;;;;;;5044846;28;20118;-59
2021/06/28 14:00:14;;;;;;;15.32;8.45;;;;;;;;;;5045739;28;20037;-59
2021/06/28 14:02:43;;;;;;;19.05;10.05;;;;;;;;;;5042192;28;20056;-58
2021/06/28 14:05:10;;;;;;;20.45;11.73;;;;;;;;;;5057605;28;20103;-58
2021/06/28 14:07:37;;;;;;;16.73;10.32;;;;;;;;;;5041074;28;20045;-58
2021/06/28 14:10:04;;;;;;;19.00;11.27;;;;;;;;;;5041374;28;20049;-59
2021/06/28 14:12:31;;;;;;;21.20;11.35;;;;;;;;;;5038826;28;20041;-59
2021/06/28 14:14:57;;;;;;;21.25;12.13;;;;;;;;;;5045323;28;20051;-59
2021/06/28 14:17:24;;;;;;;18.75;10.98;;;;;;;;;;5040034;28;20041;-59
2021/06/28 14:19:52;;;;;;;22.00;12.43;;;;;;;;;;5043034;28;20029;-58
2021/06/28 14:22:18;;;;;;;17.67;11.43;;;;;;;;;;5041833;28;20068;-59
2021/06/28 14:24:45;;;;;;;17.38;10.90;;;;;;;;;;5039811;28;20061;-60
2021/06/28 14:27:11;;;;;;;22.13;11.75;;;;;;;;;;5044721;28;20192;-59
2021/06/28 14:29:37;;;;;;;16.92;10.27;;;;;;;;;;5038531;28;20077;-59
2021/06/28 14:32:05;;;;;;;15.52;9.80;;;;;;;;;;5043141;28;20033;-59
2021/06/28 14:34:34;;;;;;;15.57;8.60;;;;;;;;;;5039127;28;20072;-60
2021/06/28 14:37:02;;;;;;;12.40;7.95;;;;;;;;;;5042656;28;20176;-59
2021/06/28 14:39:28;;;;;;;10.27;5.47;;;;;;;;;;5039293;28;20061;-59
2021/06/28 14:41:55;;;;;;;10.00;5.40;;;;;;;;;;5042733;28;20037;-59